createdAt,value
2023-05-22T00:00:18.441Z,59.39
2023-05-22T00:01:18.438Z,59.48
2023-05-22T00:02:18.479Z,59.39
2023-05-22T00:03:18.484Z,59.30
2023-05-22T00:04:18.418Z,59.39
2023-05-22T00:05:18.701Z,59.30
2023-05-22T00:06:18.446Z,59.30
2023-05-22T00:07:18.429Z,59.30
2023-05-22T00:08:18.450Z,59.39
2023-05-22T00:09:18.451Z,59.39
2023-05-22T00:10:18.447Z,59.30
2023-05-22T00:11:18.420Z,59.39
2023-05-22T00:12:18.415Z,59.39
2023-05-22T00:13:18.417Z,59.39
2023-05-22T00:14:18.416Z,59.39
2023-05-22T00:15:18.414Z,59.20
2023-05-22T00:16:18.418Z,59.39
2023-05-22T00:17:18.649Z,59.39
2023-05-22T00:18:18.402Z,59.58
2023-05-22T00:19:18.466Z,59.39
2023-05-22T00:20:18.421Z,59.10
2023-05-22T00:21:18.406Z,59.10
2023-05-22T00:22:18.418Z,59.20
2023-05-22T00:23:18.411Z,59.20
2023-05-22T00:24:18.431Z,59.39
2023-05-22T00:25:18.418Z,59.20
2023-05-22T00:26:18.426Z,59.20
2023-05-22T00:27:18.412Z,59.20
2023-05-22T00:28:18.403Z,59.48
2023-05-22T00:29:18.417Z,59.58
2023-05-22T00:30:18.449Z,59.48
2023-05-22T00:31:18.407Z,59.48
2023-05-22T00:32:18.410Z,59.30
2023-05-22T00:33:18.413Z,59.30
2023-05-22T00:34:18.422Z,59.30
2023-05-22T00:35:18.394Z,59.39
2023-05-22T00:36:18.389Z,59.48
2023-05-22T00:37:18.388Z,59.10
2023-05-22T00:38:18.375Z,59.48
2023-05-22T00:39:18.378Z,59.10
2023-05-22T00:40:18.390Z,59.48
2023-05-22T00:41:18.390Z,59.20
2023-05-22T00:42:18.568Z,59.58
2023-05-22T00:43:18.388Z,59.39
2023-05-22T00:44:18.386Z,59.20
2023-05-22T00:45:18.385Z,59.20
2023-05-22T00:46:18.411Z,59.48
2023-05-22T00:47:18.378Z,59.20
2023-05-22T00:48:18.381Z,59.39
2023-05-22T00:49:18.373Z,59.39
2023-05-22T00:50:18.378Z,59.39
2023-05-22T00:51:18.362Z,59.39
2023-05-22T00:52:18.384Z,59.68
2023-05-22T00:53:18.358Z,59.20
2023-05-22T00:54:18.369Z,59.39
2023-05-22T00:55:18.358Z,59.20
2023-05-22T00:56:18.394Z,59.10
2023-05-22T00:57:18.364Z,59.39
2023-05-22T00:58:18.396Z,59.39
2023-05-22T00:59:18.360Z,59.39
2023-05-22T01:00:18.362Z,59.30
2023-05-22T01:01:18.431Z,59.48
2023-05-22T01:02:18.386Z,59.48
2023-05-22T01:03:18.490Z,59.48
2023-05-22T01:04:18.441Z,59.48
2023-05-22T01:05:18.477Z,59.39
2023-05-22T01:06:18.366Z,59.20
2023-05-22T01:07:18.348Z,59.20
2023-05-22T01:08:18.364Z,59.10
2023-05-22T01:09:18.344Z,59.20
2023-05-22T01:10:18.350Z,59.10
2023-05-22T01:11:18.338Z,59.20
2023-05-22T01:12:18.341Z,59.20
2023-05-22T01:13:18.339Z,59.10
2023-05-22T01:14:18.444Z,59.30
2023-05-22T01:15:18.345Z,59.20
2023-05-22T01:16:18.393Z,59.20
2023-05-22T01:17:18.321Z,59.10
2023-05-22T01:18:18.341Z,59.10
2023-05-22T01:19:18.419Z,59.20
2023-05-22T01:20:18.331Z,59.00
2023-05-22T01:21:18.344Z,59.10
2023-05-22T01:22:18.326Z,59.10
2023-05-22T01:23:18.307Z,59.10
2023-05-22T01:24:18.328Z,59.10
2023-05-22T01:25:18.333Z,59.10
2023-05-22T01:26:18.335Z,59.10
2023-05-22T01:27:18.319Z,59.10
2023-05-22T01:28:18.321Z,58.91
2023-05-22T01:29:18.347Z,59.48
2023-05-22T01:30:18.346Z,59.10
2023-05-22T01:31:18.307Z,59.10
2023-05-22T01:32:18.322Z,59.10
2023-05-22T01:33:18.408Z,59.58
2023-05-22T01:34:18.328Z,59.68
2023-05-22T01:35:18.314Z,59.30
2023-05-22T01:36:18.304Z,59.10
2023-05-22T01:37:18.310Z,59.10
2023-05-22T01:38:18.309Z,59.30
2023-05-22T01:39:18.309Z,59.30
2023-05-22T01:40:18.315Z,59.30
2023-05-22T01:41:18.310Z,59.30
2023-05-22T01:42:18.299Z,59.30
2023-05-22T01:43:18.280Z,59.39
2023-05-22T01:44:18.305Z,59.39
2023-05-22T01:45:18.294Z,59.30
2023-05-22T01:46:18.502Z,59.39
2023-05-22T01:47:18.289Z,59.58
2023-05-22T01:48:18.302Z,59.39
2023-05-22T01:49:18.302Z,59.48
2023-05-22T01:50:18.296Z,59.48
2023-05-22T01:51:18.271Z,59.48
2023-05-22T01:52:18.288Z,59.58
2023-05-22T01:53:18.298Z,59.30
2023-05-22T01:54:18.309Z,59.39
2023-05-22T01:55:18.284Z,59.39
2023-05-22T01:56:18.286Z,59.39
2023-05-22T01:57:18.277Z,59.10
2023-05-22T01:58:18.269Z,59.48
2023-05-22T01:59:18.270Z,59.20
2023-05-22T02:00:18.343Z,59.87
2023-05-22T02:01:18.292Z,59.87
2023-05-22T02:02:18.346Z,59.78
2023-05-22T02:03:18.398Z,59.87
2023-05-22T02:04:18.258Z,59.87
2023-05-22T02:05:18.320Z,59.78
2023-05-22T02:06:18.264Z,59.87
2023-05-22T02:07:18.254Z,59.87
2023-05-22T02:08:18.250Z,59.87
2023-05-22T02:09:18.248Z,59.78
2023-05-22T02:10:18.250Z,59.68
2023-05-22T02:11:18.266Z,60.06
2023-05-22T02:12:18.251Z,60.06
2023-05-22T02:13:18.288Z,60.06
2023-05-22T02:14:18.253Z,59.78
2023-05-22T02:15:18.252Z,59.78
2023-05-22T02:16:18.339Z,59.97
2023-05-22T02:17:18.263Z,59.97
2023-05-22T02:18:18.277Z,59.97
2023-05-22T02:19:18.305Z,59.78
2023-05-22T02:20:18.233Z,59.78
2023-05-22T02:21:18.243Z,59.87
2023-05-22T02:22:18.240Z,59.87
2023-05-22T02:23:18.248Z,59.87
2023-05-22T02:24:18.231Z,59.87
2023-05-22T02:25:18.238Z,59.78
2023-05-22T02:26:18.241Z,59.78
2023-05-22T02:27:18.230Z,59.87
2023-05-22T02:28:18.234Z,59.78
2023-05-22T02:29:18.269Z,59.87
2023-05-22T02:30:18.245Z,59.87
2023-05-22T02:31:18.313Z,59.78
2023-05-22T02:32:18.226Z,59.87
2023-05-22T02:33:18.230Z,59.87
2023-05-22T02:34:18.234Z,59.97
2023-05-22T02:35:18.238Z,59.87
2023-05-22T02:36:18.249Z,59.78
2023-05-22T02:37:18.205Z,59.78
2023-05-22T02:38:18.222Z,59.48
2023-05-22T02:39:18.218Z,59.78
2023-05-22T02:40:18.213Z,59.68
2023-05-22T02:41:18.199Z,59.68
2023-05-22T02:42:18.212Z,59.68
2023-05-22T02:43:18.208Z,59.78
2023-05-22T02:44:18.218Z,59.68
2023-05-22T02:45:18.213Z,59.58
2023-05-22T02:46:18.248Z,59.68
2023-05-22T02:47:18.190Z,59.78
2023-05-22T02:48:18.299Z,59.68
2023-05-22T02:49:18.211Z,59.68
2023-05-22T02:50:18.216Z,59.78
2023-05-22T02:51:18.239Z,59.97
2023-05-22T02:52:18.198Z,59.78
2023-05-22T02:53:18.205Z,59.68
2023-05-22T02:54:18.193Z,59.78
2023-05-22T02:55:18.197Z,60.06
2023-05-22T02:56:18.173Z,59.68
2023-05-22T02:57:18.217Z,59.58
2023-05-22T02:58:18.183Z,60.06
2023-05-22T02:59:18.198Z,59.68
2023-05-22T03:00:18.179Z,59.78
2023-05-22T03:01:18.206Z,60.06
2023-05-22T03:02:18.162Z,60.35
2023-05-22T03:03:18.283Z,59.87
2023-05-22T03:04:18.187Z,59.78
2023-05-22T03:05:18.390Z,59.97
2023-05-22T03:06:18.312Z,60.26
2023-05-22T03:07:18.161Z,59.87
2023-05-22T03:08:18.173Z,60.13
2023-05-22T03:09:18.162Z,60.16
2023-05-22T03:10:18.169Z,60.26
2023-05-22T03:11:18.168Z,60.16
2023-05-22T03:12:18.212Z,60.35
2023-05-22T03:13:18.154Z,60.35
2023-05-22T03:14:18.152Z,60.35
2023-05-22T03:15:18.161Z,60.16
2023-05-22T03:16:18.198Z,60.06
2023-05-22T03:17:18.173Z,59.97
2023-05-22T03:18:18.174Z,60.26
2023-05-22T03:19:18.198Z,60.06
2023-05-22T03:20:18.158Z,60.16
2023-05-22T03:21:18.143Z,60.06
2023-05-22T03:22:18.203Z,60.06
2023-05-22T03:23:18.147Z,60.16
2023-05-22T03:24:18.181Z,59.87
2023-05-22T03:25:18.128Z,59.97
2023-05-22T03:26:18.156Z,59.97
2023-05-22T03:27:18.130Z,60.35
2023-05-22T03:28:18.158Z,59.97
2023-05-22T03:29:18.176Z,60.35
2023-05-22T03:30:18.143Z,59.87
2023-05-22T03:31:18.146Z,60.35
2023-05-22T03:32:18.131Z,60.35
2023-05-22T03:33:18.184Z,60.35
2023-05-22T03:34:18.124Z,60.35
2023-05-22T03:35:18.122Z,60.35
2023-05-22T03:36:18.146Z,60.26
2023-05-22T03:37:18.159Z,60.26
2023-05-22T03:38:18.132Z,60.35
2023-05-22T03:39:18.142Z,60.35
2023-05-22T03:40:18.133Z,60.35
2023-05-22T03:41:18.133Z,60.45
2023-05-22T03:42:18.134Z,60.35
2023-05-22T03:43:18.121Z,60.35
2023-05-22T03:44:18.121Z,60.45
2023-05-22T03:45:18.159Z,60.45
2023-05-22T03:46:18.255Z,60.26
2023-05-22T03:47:18.117Z,60.45
2023-05-22T03:48:18.118Z,60.64
2023-05-22T03:49:18.181Z,60.64
2023-05-22T03:50:18.116Z,60.26
2023-05-22T03:51:20.010Z,60.35
2023-05-22T03:52:18.108Z,60.35
2023-05-22T03:53:18.096Z,60.35
2023-05-22T03:54:18.135Z,60.45
2023-05-22T03:55:18.100Z,60.55
2023-05-22T03:56:18.113Z,60.35
2023-05-22T03:57:18.099Z,60.45
2023-05-22T03:58:18.093Z,60.45
2023-05-22T03:59:18.097Z,60.55
2023-05-22T04:00:18.095Z,60.45
2023-05-22T04:01:18.134Z,60.55
2023-05-22T04:02:18.202Z,60.35
2023-05-22T04:03:18.235Z,60.35
2023-05-22T04:04:18.098Z,60.35
2023-05-22T04:05:18.175Z,60.45
2023-05-22T04:06:18.095Z,60.45
2023-05-22T04:07:18.088Z,60.35
2023-05-22T04:08:18.096Z,60.32
2023-05-22T04:09:18.080Z,60.52
2023-05-22T04:10:18.129Z,60.74
2023-05-22T04:11:18.076Z,60.35
2023-05-22T04:12:18.084Z,60.26
2023-05-22T04:13:18.094Z,60.45
2023-05-22T04:14:18.088Z,60.55
2023-05-22T04:15:18.084Z,60.83
2023-05-22T04:16:18.116Z,60.45
2023-05-22T04:17:18.059Z,60.45
2023-05-22T04:18:18.081Z,60.64
2023-05-22T04:19:18.093Z,60.42
2023-05-22T04:20:18.081Z,60.64
2023-05-22T04:21:18.069Z,60.64
2023-05-22T04:22:18.076Z,60.64
2023-05-22T04:23:18.059Z,60.64
2023-05-22T04:24:18.077Z,60.64
2023-05-22T04:25:18.067Z,60.55
2023-05-22T04:26:18.105Z,60.64
2023-05-22T04:27:18.069Z,60.83
2023-05-22T04:28:18.055Z,60.64
2023-05-22T04:29:18.039Z,60.83
2023-05-22T04:30:18.052Z,60.64
2023-05-22T04:31:18.091Z,60.35
2023-05-22T04:32:18.061Z,60.61
2023-05-22T04:33:18.070Z,60.64
2023-05-22T04:34:18.036Z,60.64
2023-05-22T04:35:18.052Z,60.42
2023-05-22T04:36:18.047Z,60.42
2023-05-22T04:37:18.030Z,60.45
2023-05-22T04:38:18.058Z,60.45
2023-05-22T04:39:18.057Z,60.45
2023-05-22T04:40:18.041Z,60.45
2023-05-22T04:41:18.375Z,60.45
2023-05-22T04:42:18.045Z,60.55
2023-05-22T04:43:18.047Z,60.32
2023-05-22T04:44:18.036Z,60.26
2023-05-22T04:45:18.034Z,60.26
2023-05-22T04:46:18.068Z,60.45
2023-05-22T04:47:18.015Z,60.26
2023-05-22T04:48:18.048Z,60.23
2023-05-22T04:49:18.011Z,60.55
2023-05-22T04:50:18.044Z,60.26
2023-05-22T04:51:18.014Z,60.35
2023-05-22T04:52:18.014Z,60.26
2023-05-22T04:53:18.016Z,60.32
2023-05-22T04:54:18.010Z,60.35
2023-05-22T04:55:18.020Z,60.35
2023-05-22T04:56:31.798Z,60.26
2023-05-22T04:57:18.005Z,60.35
2023-05-22T04:58:18.042Z,60.35
2023-05-22T04:59:18.010Z,60.35
2023-05-22T05:00:18.025Z,60.35
2023-05-22T05:01:18.054Z,60.35
2023-05-22T05:02:18.014Z,60.35
2023-05-22T05:03:18.119Z,60.35
2023-05-22T05:04:17.994Z,60.35
2023-05-22T05:05:18.010Z,60.64
2023-05-22T05:06:17.993Z,60.45
2023-05-22T05:07:17.999Z,60.64
2023-05-22T05:08:18.007Z,60.45
2023-05-22T05:09:18.006Z,60.64
2023-05-22T05:10:18.005Z,60.64
2023-05-22T05:11:17.996Z,60.64
2023-05-22T05:12:17.985Z,60.35
2023-05-22T05:13:18.007Z,60.55
2023-05-22T05:14:18.008Z,60.64
2023-05-22T05:15:17.987Z,60.35
2023-05-22T05:16:18.090Z,60.64
2023-05-22T05:17:17.997Z,60.45
2023-05-22T05:18:18.031Z,60.35
2023-05-22T05:19:18.044Z,60.45
2023-05-22T05:20:17.985Z,60.45
2023-05-22T05:21:18.014Z,60.64
2023-05-22T05:22:17.980Z,60.45
2023-05-22T05:23:17.971Z,60.45
2023-05-22T05:24:17.984Z,60.35
2023-05-22T05:25:17.973Z,60.64
2023-05-22T05:26:17.963Z,60.64
2023-05-22T05:27:17.998Z,60.35
2023-05-22T05:28:17.969Z,60.55
2023-05-22T05:29:17.994Z,60.35
2023-05-22T05:30:20.390Z,60.35
2023-05-22T05:31:17.970Z,60.64
2023-05-22T05:32:18.031Z,60.26
2023-05-22T05:33:17.961Z,60.35
2023-05-22T05:34:17.959Z,60.26
2023-05-22T05:35:17.986Z,60.26
2023-05-22T05:36:17.954Z,60.45
2023-05-22T05:37:17.957Z,60.26
2023-05-22T05:38:17.965Z,60.35
2023-05-22T05:39:17.973Z,60.45
2023-05-22T05:40:17.965Z,60.45
2023-05-22T05:41:17.964Z,60.35
2023-05-22T05:42:17.959Z,60.45
2023-05-22T05:43:17.960Z,60.26
2023-05-22T05:44:17.949Z,60.45
2023-05-22T05:45:17.975Z,60.26
2023-05-22T05:46:17.979Z,60.45
2023-05-22T05:47:17.965Z,60.45
2023-05-22T05:48:17.943Z,60.26
2023-05-22T05:49:17.956Z,60.35
2023-05-22T05:50:17.944Z,60.45
2023-05-22T05:51:17.967Z,60.55
2023-05-22T05:52:17.957Z,60.45
2023-05-22T05:53:17.960Z,60.26
2023-05-22T05:54:17.957Z,60.26
2023-05-22T05:55:17.983Z,60.55
2023-05-22T05:56:17.946Z,60.55
2023-05-22T05:57:17.946Z,60.35
2023-05-22T05:58:17.965Z,60.55
2023-05-22T05:59:17.955Z,60.28
2023-05-22T06:00:17.971Z,60.35
2023-05-22T06:01:18.031Z,60.35
2023-05-22T06:02:18.031Z,60.45
2023-05-22T06:03:18.124Z,60.35
2023-05-22T06:04:17.936Z,60.38
2023-05-22T06:05:17.953Z,60.38
2023-05-22T06:06:17.944Z,60.77
2023-05-22T06:07:17.929Z,60.77
2023-05-22T06:08:17.932Z,60.68
2023-05-22T06:09:17.929Z,60.58
2023-05-22T06:10:17.936Z,60.58
2023-05-22T06:11:17.942Z,60.77
2023-05-22T06:12:17.927Z,60.68
2023-05-22T06:13:17.931Z,60.48
2023-05-22T06:14:17.918Z,60.77
2023-05-22T06:15:17.940Z,60.77
2023-05-22T06:16:17.962Z,60.48
2023-05-22T06:17:17.922Z,60.58
2023-05-22T06:18:18.122Z,60.77
2023-05-22T06:19:17.946Z,60.77
2023-05-22T06:20:17.910Z,61.16
2023-05-22T06:21:17.917Z,60.77
2023-05-22T06:22:17.913Z,60.96
2023-05-22T06:23:17.927Z,61.06
2023-05-22T06:24:17.913Z,61.25
2023-05-22T06:25:17.936Z,60.96
2023-05-22T06:26:17.914Z,61.06
2023-05-22T06:27:17.934Z,61.25
2023-05-22T06:28:17.904Z,61.06
2023-05-22T06:29:17.944Z,61.06
2023-05-22T06:30:28.158Z,61.06
2023-05-22T06:31:17.914Z,61.06
2023-05-22T06:32:17.951Z,61.16
2023-05-22T06:33:17.959Z,61.06
2023-05-22T06:34:17.992Z,61.16
2023-05-22T06:35:17.915Z,61.35
2023-05-22T06:36:17.896Z,61.25
2023-05-22T06:37:17.989Z,61.06
2023-05-22T06:38:17.934Z,61.16
2023-05-22T06:39:17.922Z,61.16
2023-05-22T06:40:17.910Z,61.25
2023-05-22T06:41:17.927Z,61.16
2023-05-22T06:42:17.907Z,61.44
2023-05-22T06:43:17.913Z,61.54
2023-05-22T06:44:17.910Z,61.64
2023-05-22T06:45:17.938Z,61.64
2023-05-22T06:46:17.965Z,61.64
2023-05-22T06:47:17.898Z,61.54
2023-05-22T06:48:17.921Z,61.25
2023-05-22T06:49:17.902Z,61.64
2023-05-22T06:50:18.014Z,61.54
2023-05-22T06:51:17.893Z,61.44
2023-05-22T06:52:17.895Z,61.54
2023-05-22T06:53:17.913Z,61.44
2023-05-22T06:54:17.915Z,61.44
2023-05-22T06:55:17.898Z,61.54
2023-05-22T06:56:17.884Z,61.35
2023-05-22T06:57:17.901Z,61.35
2023-05-22T06:58:17.898Z,61.44
2023-05-22T06:59:17.936Z,61.35
2023-05-22T07:00:19.178Z,61.25
2023-05-22T07:01:17.922Z,61.35
2023-05-22T07:02:17.880Z,61.25
2023-05-22T07:03:17.871Z,61.44
2023-05-22T07:04:17.882Z,61.25
2023-05-22T07:05:17.991Z,61.25
2023-05-22T07:06:18.238Z,61.06
2023-05-22T07:07:17.894Z,61.06
2023-05-22T07:08:17.899Z,61.25
2023-05-22T07:09:17.891Z,61.25
2023-05-22T07:10:17.891Z,61.54
2023-05-22T07:11:17.886Z,61.64
2023-05-22T07:12:17.876Z,61.25
2023-05-22T07:13:17.879Z,61.54
2023-05-22T07:14:17.876Z,61.25
2023-05-22T07:15:17.862Z,61.25
2023-05-22T07:16:17.898Z,61.41
2023-05-22T07:17:17.869Z,61.54
2023-05-22T07:18:17.863Z,61.41
2023-05-22T07:19:17.935Z,61.44
2023-05-22T07:20:17.904Z,61.64
2023-05-22T07:21:17.866Z,61.25
2023-05-22T07:22:17.965Z,61.41
2023-05-22T07:23:17.851Z,61.74
2023-05-22T07:24:17.905Z,61.61
2023-05-22T07:25:17.871Z,61.74
2023-05-22T07:26:17.855Z,61.71
2023-05-22T07:27:17.847Z,61.64
2023-05-22T07:28:17.871Z,61.64
2023-05-22T07:29:17.856Z,61.54
2023-05-22T07:30:17.859Z,61.61
2023-05-22T07:31:17.887Z,61.83
2023-05-22T07:32:17.862Z,61.64
2023-05-22T07:33:17.873Z,61.83
2023-05-22T07:34:17.846Z,61.64
2023-05-22T07:35:17.843Z,61.64
2023-05-22T07:36:17.847Z,61.44
2023-05-22T07:37:17.866Z,61.83
2023-05-22T07:38:17.992Z,61.90
2023-05-22T07:39:17.857Z,61.90
2023-05-22T07:40:17.838Z,61.99
2023-05-22T07:41:17.844Z,61.74
2023-05-22T07:42:17.880Z,61.74
2023-05-22T07:43:17.854Z,61.93
2023-05-22T07:44:17.837Z,61.80
2023-05-22T07:45:17.860Z,61.61
2023-05-22T07:46:17.907Z,61.74
2023-05-22T07:47:17.825Z,61.71
2023-05-22T07:48:17.863Z,61.80
2023-05-22T07:49:17.827Z,61.93
2023-05-22T07:50:17.841Z,61.90
2023-05-22T07:51:17.836Z,61.83
2023-05-22T07:52:17.824Z,61.54
2023-05-22T07:53:17.832Z,61.74
2023-05-22T07:54:17.967Z,61.80
2023-05-22T07:55:17.834Z,61.64
2023-05-22T07:56:17.840Z,61.64
2023-05-22T07:57:17.844Z,61.64
2023-05-22T07:58:17.824Z,61.71
2023-05-22T07:59:17.825Z,61.74
2023-05-22T08:00:17.814Z,61.54
2023-05-22T08:01:17.811Z,61.83
2023-05-22T08:02:17.852Z,61.83
2023-05-22T08:03:18.060Z,61.54
2023-05-22T08:04:17.961Z,61.51
2023-05-22T08:05:17.859Z,61.54
2023-05-22T08:06:17.832Z,61.74
2023-05-22T08:07:17.798Z,62.12
2023-05-22T08:08:17.808Z,62.09
2023-05-22T08:09:17.815Z,62.12
2023-05-22T08:10:17.965Z,61.83
2023-05-22T08:11:17.805Z,62.28
2023-05-22T08:12:17.813Z,62.09
2023-05-22T08:13:17.813Z,62.12
2023-05-22T08:14:17.811Z,62.09
2023-05-22T08:15:17.819Z,62.18
2023-05-22T08:16:17.797Z,62.22
2023-05-22T08:17:17.925Z,62.12
2023-05-22T08:18:17.812Z,62.31
2023-05-22T08:19:17.888Z,62.22
2023-05-22T08:20:17.882Z,61.99
2023-05-22T08:21:17.801Z,61.90
2023-05-22T08:22:17.821Z,62.02
2023-05-22T08:23:17.797Z,62.09
2023-05-22T08:24:17.783Z,62.09
2023-05-22T08:25:17.784Z,62.02
2023-05-22T08:26:17.832Z,62.12
2023-05-22T08:27:17.800Z,62.09
2023-05-22T08:28:17.793Z,62.09
2023-05-22T08:29:17.796Z,62.12
2023-05-22T08:30:17.805Z,62.12
2023-05-22T08:31:17.794Z,62.09
2023-05-22T08:32:17.776Z,62.12
2023-05-22T08:33:17.851Z,62.22
2023-05-22T08:34:17.803Z,62.12
2023-05-22T08:35:17.775Z,62.18
2023-05-22T08:36:17.786Z,62.31
2023-05-22T08:37:17.793Z,62.09
2023-05-22T08:38:17.785Z,62.41
2023-05-22T08:39:17.784Z,62.09
2023-05-22T08:40:17.818Z,62.31
2023-05-22T08:41:17.765Z,62.31
2023-05-22T08:42:18.030Z,62.41
2023-05-22T08:43:17.781Z,62.28
2023-05-22T08:44:17.767Z,62.38
2023-05-22T08:45:17.777Z,62.38
2023-05-22T08:46:17.776Z,61.99
2023-05-22T08:47:17.903Z,62.31
2023-05-22T08:48:17.752Z,62.38
2023-05-22T08:49:17.773Z,62.38
2023-05-22T08:50:17.757Z,62.18
2023-05-22T08:51:17.754Z,62.41
2023-05-22T08:52:17.759Z,62.22
2023-05-22T08:53:17.769Z,62.22
2023-05-22T08:54:17.765Z,62.22
2023-05-22T08:55:17.758Z,62.18
2023-05-22T08:56:17.792Z,62.18
2023-05-22T08:57:17.780Z,62.12
2023-05-22T08:58:17.795Z,62.22
2023-05-22T08:59:17.747Z,62.22
2023-05-22T09:00:17.770Z,62.22
2023-05-22T09:01:17.782Z,62.31
2023-05-22T09:02:17.737Z,62.22
2023-05-22T09:03:17.822Z,62.22
2023-05-22T09:04:17.747Z,62.31
2023-05-22T09:05:17.774Z,62.31
2023-05-22T09:06:17.757Z,62.28
2023-05-22T09:07:17.753Z,62.41
2023-05-22T09:08:20.907Z,62.31
2023-05-22T09:09:17.762Z,62.41
2023-05-22T09:10:17.757Z,62.31
2023-05-22T09:11:17.765Z,62.28
2023-05-22T09:12:17.760Z,62.09
2023-05-22T09:13:17.739Z,62.31
2023-05-22T09:14:17.762Z,62.18
2023-05-22T09:15:17.754Z,62.02
2023-05-22T09:16:17.820Z,62.28
2023-05-22T09:17:17.756Z,62.28
2023-05-22T09:18:17.754Z,61.99
2023-05-22T09:19:17.812Z,62.12
2023-05-22T09:20:17.747Z,62.02
2023-05-22T09:21:29.728Z,62.31
2023-05-22T09:22:17.744Z,62.28
2023-05-22T09:23:17.741Z,62.12
2023-05-22T09:24:17.750Z,62.31
2023-05-22T09:25:17.729Z,62.38
2023-05-22T09:26:17.725Z,62.41
2023-05-22T09:27:17.741Z,62.31
2023-05-22T09:28:17.740Z,62.41
2023-05-22T09:29:17.761Z,62.31
2023-05-22T09:30:17.765Z,62.28
2023-05-22T09:31:17.735Z,62.41
2023-05-22T09:32:17.733Z,62.38
2023-05-22T09:33:17.730Z,61.80
2023-05-22T09:34:17.877Z,61.90
2023-05-22T09:35:17.733Z,62.18
2023-05-22T09:36:17.740Z,61.83
2023-05-22T09:37:17.729Z,61.83
2023-05-22T09:38:17.734Z,62.18
2023-05-22T09:39:17.721Z,61.80
2023-05-22T09:40:17.714Z,62.18
2023-05-22T09:41:17.726Z,61.93
2023-05-22T09:42:17.729Z,62.28
2023-05-22T09:43:17.721Z,62.12
2023-05-22T09:44:17.707Z,62.22
2023-05-22T09:45:17.716Z,61.99
2023-05-22T09:46:17.788Z,61.80
2023-05-22T09:47:17.741Z,62.12
2023-05-22T09:48:17.730Z,61.90
2023-05-22T09:49:17.909Z,62.09
2023-05-22T09:50:17.717Z,62.12
2023-05-22T09:51:17.701Z,62.12
2023-05-22T09:52:17.699Z,62.09
2023-05-22T09:53:17.751Z,62.09
2023-05-22T09:54:18.040Z,62.02
2023-05-22T09:55:17.705Z,61.99
2023-05-22T09:56:27.157Z,62.12
2023-05-22T09:57:17.701Z,62.12
2023-05-22T09:58:17.687Z,62.09
2023-05-22T09:59:17.703Z,62.09
2023-05-22T10:00:17.708Z,62.12
2023-05-22T10:01:17.718Z,62.22
2023-05-22T10:02:17.946Z,62.31
2023-05-22T10:03:17.696Z,62.22
2023-05-22T10:04:17.725Z,62.18
2023-05-22T10:05:17.699Z,62.18
2023-05-22T10:06:17.696Z,61.99
2023-05-22T10:07:17.685Z,62.12
2023-05-22T10:08:17.697Z,62.09
2023-05-22T10:09:19.315Z,62.31
2023-05-22T10:10:17.679Z,62.09
2023-05-22T10:11:17.678Z,62.09
2023-05-22T10:12:17.711Z,62.09
2023-05-22T10:13:17.686Z,62.18
2023-05-22T10:14:17.680Z,62.09
2023-05-22T10:15:17.677Z,62.28
2023-05-22T10:16:17.739Z,62.18
2023-05-22T10:17:17.684Z,62.09
2023-05-22T10:18:17.798Z,62.02
2023-05-22T10:19:17.733Z,62.09
2023-05-22T10:20:17.693Z,62.28
2023-05-22T10:21:17.678Z,61.80
2023-05-22T10:22:17.683Z,62.09
2023-05-22T10:23:17.666Z,62.28
2023-05-22T10:24:17.675Z,61.80
2023-05-22T10:25:17.662Z,62.12
2023-05-22T10:26:17.685Z,61.99
2023-05-22T10:27:17.702Z,62.12
2023-05-22T10:28:17.686Z,62.02
2023-05-22T10:29:17.656Z,62.28
2023-05-22T10:30:17.673Z,62.12
2023-05-22T10:31:17.658Z,62.09
2023-05-22T10:32:17.674Z,62.12
2023-05-22T10:33:17.855Z,62.31
2023-05-22T10:34:17.769Z,62.12
2023-05-22T10:35:17.676Z,62.22
2023-05-22T10:36:17.685Z,61.83
2023-05-22T10:37:20.778Z,61.99
2023-05-22T10:38:17.665Z,62.18
2023-05-22T10:39:17.672Z,62.31
2023-05-22T10:40:18.260Z,62.09
2023-05-22T10:41:17.669Z,62.22
2023-05-22T10:42:17.678Z,62.12
2023-05-22T10:43:17.649Z,62.12
2023-05-22T10:44:17.651Z,62.09
2023-05-22T10:45:17.665Z,62.31
2023-05-22T10:46:17.721Z,62.02
2023-05-22T10:47:17.665Z,62.09
2023-05-22T10:48:17.639Z,62.12
2023-05-22T10:49:17.641Z,62.09
2023-05-22T10:50:17.787Z,62.31
2023-05-22T10:51:17.651Z,62.12
2023-05-22T10:52:17.658Z,61.80
2023-05-22T10:53:17.662Z,62.22
2023-05-22T10:54:17.654Z,62.28
2023-05-22T10:55:17.654Z,62.22
2023-05-22T10:56:17.687Z,62.12
2023-05-22T10:57:17.633Z,62.09
2023-05-22T10:58:17.647Z,62.28
2023-05-22T10:59:17.650Z,61.80
2023-05-22T11:00:17.632Z,62.22
2023-05-22T11:01:17.711Z,62.12
2023-05-22T11:02:17.778Z,62.12
2023-05-22T11:03:18.682Z,62.22
2023-05-22T11:04:17.661Z,62.12
2023-05-22T11:05:17.656Z,62.12
2023-05-22T11:06:17.740Z,62.22
2023-05-22T11:07:17.623Z,62.02
2023-05-22T11:08:19.491Z,62.28
2023-05-22T11:09:17.627Z,62.22
2023-05-22T11:10:17.662Z,62.22
2023-05-22T11:11:17.639Z,62.18
2023-05-22T11:12:17.716Z,62.18
2023-05-22T11:13:17.621Z,62.31
2023-05-22T11:14:17.633Z,62.12
2023-05-22T11:15:17.626Z,62.31
2023-05-22T11:16:17.660Z,62.22
2023-05-22T11:17:17.705Z,62.12
2023-05-22T11:18:17.676Z,62.12
2023-05-22T11:20:17.711Z,62.22
2023-05-22T11:21:17.624Z,62.12
2023-05-22T11:22:17.731Z,62.12
2023-05-22T11:23:17.626Z,62.22
2023-05-22T11:24:17.624Z,62.12
2023-05-22T11:25:17.652Z,62.12
2023-05-22T11:26:17.611Z,62.22
2023-05-22T11:27:17.614Z,62.12
2023-05-22T11:28:17.636Z,62.22
2023-05-22T11:29:17.624Z,62.12
2023-05-22T11:30:17.741Z,62.12
2023-05-22T11:31:17.654Z,62.12
2023-05-22T11:32:17.613Z,62.12
2023-05-22T11:33:17.681Z,62.02
2023-05-22T11:34:17.613Z,62.12
2023-05-22T11:35:17.672Z,62.12
2023-05-22T11:36:17.596Z,62.12
2023-05-22T11:37:17.620Z,62.12
2023-05-22T11:38:17.746Z,62.12
2023-05-22T11:39:17.610Z,62.12
2023-05-22T11:40:17.600Z,62.12
2023-05-22T11:41:17.601Z,62.12
2023-05-22T11:42:17.594Z,62.02
2023-05-22T11:43:17.594Z,61.93
2023-05-22T11:44:17.588Z,61.93
2023-05-22T11:45:17.601Z,61.93
2023-05-22T11:46:17.679Z,62.12
2023-05-22T11:47:17.601Z,61.93
2023-05-22T11:48:17.637Z,61.93
2023-05-22T11:49:17.598Z,61.93
2023-05-22T11:50:29.408Z,61.93
2023-05-22T11:51:17.603Z,61.93
2023-05-22T11:52:17.586Z,62.31
2023-05-22T11:53:17.591Z,62.22
2023-05-22T11:54:17.691Z,61.93
2023-05-22T11:55:17.593Z,62.31
2023-05-22T11:56:17.595Z,62.02
2023-05-22T11:57:17.577Z,61.83
2023-05-22T11:58:17.585Z,61.83
2023-05-22T11:59:17.562Z,61.93
2023-05-22T12:00:17.612Z,61.83
2023-05-22T12:01:17.565Z,61.83
2023-05-22T12:02:17.578Z,61.83
2023-05-22T12:03:17.778Z,62.02
2023-05-22T12:04:17.590Z,61.93
2023-05-22T12:05:17.568Z,62.41
2023-05-22T12:06:17.822Z,62.22
2023-05-22T12:07:17.567Z,62.31
2023-05-22T12:08:17.557Z,62.22
2023-05-22T12:09:17.560Z,61.93
2023-05-22T12:10:17.691Z,62.31
2023-05-22T12:11:17.560Z,62.31
2023-05-22T12:12:17.548Z,62.02
2023-05-22T12:13:17.569Z,62.22
2023-05-22T12:14:17.571Z,62.31
2023-05-22T12:15:17.547Z,62.31
2023-05-22T12:16:17.575Z,61.83
2023-05-22T12:17:17.547Z,62.41
2023-05-22T12:18:17.549Z,62.31
2023-05-22T12:19:17.566Z,62.02
2023-05-22T12:20:17.562Z,62.22
2023-05-22T12:21:17.540Z,61.93
2023-05-22T12:22:17.544Z,62.31
2023-05-22T12:23:17.538Z,61.83
2023-05-22T12:24:17.551Z,62.31
2023-05-22T12:25:17.746Z,62.31
2023-05-22T12:26:17.663Z,62.02
2023-05-22T12:27:17.537Z,62.31
2023-05-22T12:28:17.547Z,62.31
2023-05-22T12:29:17.562Z,62.31
2023-05-22T12:30:17.564Z,62.22
2023-05-22T12:31:17.525Z,61.93
2023-05-22T12:32:17.547Z,62.02
2023-05-22T12:33:17.581Z,62.41
2023-05-22T12:34:17.557Z,61.83
2023-05-22T12:35:17.639Z,62.02
2023-05-22T12:36:17.529Z,62.12
2023-05-22T12:37:17.563Z,62.12
2023-05-22T12:38:17.535Z,62.22
2023-05-22T12:39:17.559Z,61.93
2023-05-22T12:40:17.541Z,62.31
2023-05-22T12:41:17.521Z,61.83
2023-05-22T12:42:17.638Z,62.22
2023-05-22T12:43:17.516Z,62.31
2023-05-22T12:44:17.538Z,61.93
2023-05-22T12:45:17.517Z,62.22
2023-05-22T12:46:17.599Z,62.31
2023-05-22T12:47:17.511Z,62.31
2023-05-22T12:48:17.521Z,62.12
2023-05-22T12:49:17.526Z,62.31
2023-05-22T12:50:17.526Z,62.31
2023-05-22T12:51:19.865Z,62.31
2023-05-22T12:52:17.527Z,62.31
2023-05-22T12:53:17.506Z,62.41